createdAt,value
2023-01-29T00:01:27.287Z,12.1
2023-01-29T00:03:30.317Z,11.5
2023-01-29T00:05:33.321Z,11
2023-01-29T00:07:39.584Z,11.5
2023-01-29T00:09:42.586Z,9.7
2023-01-29T00:11:45.613Z,10.1
2023-01-29T00:13:49.778Z,9.4
2023-01-29T00:15:51.686Z,11.4
2023-01-29T00:17:54.657Z,12.5
2023-01-29T00:19:57.711Z,10.8
2023-01-29T00:22:03.906Z,9.4
2023-01-29T00:24:07.040Z,10
2023-01-29T00:26:09.983Z,8.7
2023-01-29T00:28:12.983Z,10.7
2023-01-29T00:30:16.313Z,11.4
2023-01-29T00:34:22.061Z,11.2
2023-01-29T00:36:28.347Z,10.3
2023-01-29T00:38:31.314Z,10.4
2023-01-29T00:40:34.365Z,12
2023-01-29T00:43:40.503Z,15
2023-01-29T00:45:43.541Z,11.5
2023-01-29T00:47:46.556Z,10.6
2023-01-29T00:49:52.778Z,12.4
2023-01-29T00:51:55.834Z,14
2023-01-29T00:56:01.859Z,12.3
2023-01-29T00:58:04.891Z,12.9
2023-01-29T01:00:07.907Z,11.1
2023-01-29T01:02:11.032Z,10.1
2023-01-29T01:08:23.248Z,10.6
2023-01-29T01:10:26.248Z,11
2023-01-29T01:12:29.275Z,11.2
2023-01-29T01:14:32.318Z,12.8
2023-01-29T01:16:35.366Z,12.4
2023-01-29T01:18:41.554Z,12.3
2023-01-29T01:20:44.587Z,10.7
2023-01-29T01:24:50.644Z,10.3
2023-01-29T01:26:53.619Z,9.7
2023-01-29T01:28:56.641Z,11.7
2023-01-29T01:33:05.908Z,10.5
2023-01-29T01:35:08.947Z,9.3
2023-01-29T01:37:11.953Z,10.6
2023-01-29T01:38:15.046Z,12
2023-01-29T01:40:18.799Z,12.6
2023-01-29T01:42:21.141Z,11.2
2023-01-29T01:44:24.126Z,12.4
2023-01-29T01:46:30.390Z,12.5
2023-01-29T01:48:33.397Z,13.1
2023-01-29T01:50:36.394Z,12.1
2023-01-29T01:52:39.440Z,11.6
2023-01-29T01:54:42.442Z,11.3
2023-01-29T01:56:45.482Z,11.1
2023-01-29T01:58:48.523Z,13.7
2023-01-29T02:00:54.825Z,10.8
2023-01-29T02:02:57.779Z,11.5
2023-01-29T02:05:00.810Z,13.4
2023-01-29T02:07:05.390Z,13.9
2023-01-29T02:09:08.383Z,12.6
2023-01-29T02:11:11.406Z,12.6
2023-01-29T02:13:14.440Z,12.5
2023-01-29T02:17:23.809Z,16.2
2023-01-29T02:19:26.751Z,10.7
2023-01-29T02:21:29.750Z,12.4
2023-01-29T02:23:32.825Z,11.9
2023-01-29T02:25:35.841Z,14.5
2023-01-29T02:27:38.831Z,17.2
2023-01-29T02:29:45.096Z,10.6
2023-01-29T02:31:48.124Z,12.7
2023-01-29T02:33:51.122Z,11.8
2023-01-29T02:36:21.046Z,13.1
2023-01-29T02:38:24.040Z,12.2
2023-01-29T02:40:27.096Z,14.4
2023-01-29T02:42:33.317Z,12.2
2023-01-29T02:44:36.353Z,12
2023-01-29T02:46:39.389Z,12
2023-01-29T02:48:42.395Z,10.4
2023-01-29T02:50:45.440Z,11.4
2023-01-29T02:52:48.481Z,11.7
2023-01-29T03:01:03.851Z,46.7
2023-01-29T03:03:06.817Z,13.8
2023-01-29T03:05:09.866Z,14
2023-01-29T03:07:12.880Z,11.6
2023-01-29T03:09:15.897Z,11.2
2023-01-29T03:11:22.135Z,10.1
2023-01-29T03:13:25.179Z,12.2
2023-01-29T03:15:28.253Z,13.1
2023-01-29T03:17:31.196Z,11.8
2023-01-29T03:19:34.244Z,11.2
2023-01-29T03:21:37.282Z,12
2023-01-29T03:23:40.362Z,13.9
2023-01-29T03:25:46.540Z,9.8
2023-01-29T03:27:49.573Z,10.7
2023-01-29T03:29:52.603Z,11.9
2023-01-29T03:32:58.716Z,13.2
2023-01-29T03:35:01.788Z,13.1
2023-01-29T03:37:04.797Z,14
2023-01-29T03:41:14.054Z,12.1
2023-01-29T03:43:17.053Z,12
2023-01-29T03:47:23.136Z,13.7
2023-01-29T03:49:26.147Z,12
2023-01-29T03:53:35.429Z,13.3
2023-01-29T03:55:38.434Z,14.2
2023-01-29T03:57:41.460Z,10.7
2023-01-29T03:59:44.492Z,10.1
2023-01-29T04:01:47.587Z,10.1
2023-01-29T04:03:50.603Z,9.4
2023-01-29T04:05:53.501Z,10.8
2023-01-29T04:07:59.763Z,12.2
2023-01-29T04:10:02.801Z,10.2
2023-01-29T04:12:05.832Z,10
2023-01-29T04:14:08.830Z,12.1
2023-01-29T04:16:11.850Z,11.6
2023-01-29T04:18:14.860Z,9.8
2023-01-29T04:20:18.288Z,12.1
2023-01-29T04:22:24.107Z,11.1
2023-01-29T04:24:27.165Z,13.4
2023-01-29T04:26:30.159Z,12
2023-01-29T04:27:33.269Z,12.5
2023-01-29T04:31:39.527Z,11
2023-01-29T04:33:42.310Z,10.6
2023-01-29T04:35:48.574Z,11.8
2023-01-29T04:37:51.597Z,11.7
2023-01-29T04:39:54.579Z,10.9
2023-01-29T04:41:57.616Z,11
2023-01-29T04:44:00.629Z,12.3
2023-01-29T04:48:06.667Z,11.4
2023-01-29T04:50:12.908Z,12.3
2023-01-29T04:52:15.935Z,10.8
2023-01-29T04:54:18.931Z,12.4
2023-01-29T04:56:21.968Z,11.8
2023-01-29T04:58:24.976Z,10.5
2023-01-29T05:00:27.998Z,11.3
2023-01-29T05:02:31.027Z,10.5
2023-01-29T05:04:37.243Z,12.1
2023-01-29T05:06:40.251Z,11.8
2023-01-29T05:08:43.265Z,11.2
2023-01-29T05:10:46.281Z,10.6
2023-01-29T05:12:49.285Z,12.6
2023-01-29T05:14:52.310Z,13.4
2023-01-29T05:16:55.323Z,13.7
2023-01-29T05:19:01.559Z,12.3
2023-01-29T05:21:04.555Z,12.1
2023-01-29T05:23:07.569Z,11.2
2023-01-29T05:24:10.745Z,13.2
2023-01-29T05:26:13.700Z,12.8
2023-01-29T05:28:16.922Z,13.8
2023-01-29T05:30:19.847Z,12.1
2023-01-29T05:32:25.950Z,13.2
2023-01-29T05:34:28.979Z,14.7
2023-01-29T05:36:32.003Z,10.5
2023-01-29T05:38:34.985Z,12.3
2023-01-29T05:40:37.985Z,12
2023-01-29T05:42:41.009Z,13.4
2023-01-29T05:44:44.107Z,13.6
2023-01-29T05:46:50.305Z,14.7
2023-01-29T05:48:53.302Z,15.8
2023-01-29T05:50:56.300Z,13.1
2023-01-29T05:52:59.315Z,13
2023-01-29T05:55:02.342Z,14.9
2023-01-29T05:57:05.329Z,12.8
2023-01-29T05:59:08.379Z,14.9
2023-01-29T06:01:14.570Z,14.3
2023-01-29T06:03:17.651Z,14.9
2023-01-29T06:05:20.622Z,13.5
2023-01-29T06:07:23.609Z,9.6
2023-01-29T06:09:26.628Z,15.7
2023-01-29T06:11:29.626Z,14.6
2023-01-29T06:13:32.659Z,12.3
2023-01-29T06:15:38.865Z,14.2
2023-01-29T06:17:41.851Z,14.1
2023-01-29T06:19:44.883Z,13.1
2023-01-29T06:22:02.752Z,15.5
2023-01-29T06:24:05.788Z,14.6
2023-01-29T06:26:08.749Z,12.1
2023-01-29T06:30:18.287Z,12.4
2023-01-29T06:34:23.985Z,14
2023-01-29T06:36:27.003Z,16
2023-01-29T06:40:33.024Z,14.1
2023-01-29T06:42:39.253Z,13.8
2023-01-29T06:44:42.339Z,13.7
2023-01-29T06:46:45.287Z,16.3
2023-01-29T06:48:48.287Z,14.4
2023-01-29T06:50:51.287Z,15.2
2023-01-29T06:52:54.304Z,12.4
2023-01-29T06:57:03.532Z,12.5
2023-01-29T06:59:06.631Z,12.6
2023-01-29T07:01:09.669Z,12.2
2023-01-29T07:09:21.589Z,12.9
2023-01-29T07:13:30.846Z,13.4
2023-01-29T07:15:35.887Z,14.8
2023-01-29T07:16:37.054Z,15.1
2023-01-29T07:20:43.069Z,14.2
2023-01-29T07:22:46.007Z,14.7
2023-01-29T07:24:52.260Z,15.3
2023-01-29T07:26:55.262Z,14.5
2023-01-29T07:28:58.276Z,13.9
2023-01-29T07:33:06.427Z,15.5
2023-01-29T07:35:07.316Z,14.8
2023-01-29T07:37:10.312Z,16.1
2023-01-29T07:39:16.554Z,16.6
2023-01-29T07:41:19.570Z,15.7
2023-01-29T07:43:22.560Z,14.7
2023-01-29T07:45:25.575Z,15.4
2023-01-29T07:47:28.578Z,16
2023-01-29T07:49:31.611Z,17.6
2023-01-29T07:51:34.606Z,14.6
2023-01-29T07:53:40.835Z,17.6
2023-01-29T07:55:43.844Z,12.5
2023-01-29T07:57:46.840Z,15.6
2023-01-29T07:59:49.859Z,17
2023-01-29T08:01:54.537Z,15
2023-01-29T08:03:57.395Z,15.7
2023-01-29T08:06:00.392Z,17.9
2023-01-29T08:08:07.767Z,16.5
2023-01-29T08:10:09.627Z,17.5
2023-01-29T08:13:15.752Z,15.7
2023-01-29T08:15:18.791Z,17
2023-01-29T08:17:21.772Z,14.2
2023-01-29T08:19:24.770Z,15.3
2023-01-29T08:23:33.995Z,15.5
2023-01-29T08:25:37.053Z,14.6
2023-01-29T08:27:39.988Z,13.5
2023-01-29T08:29:43.032Z,13.8
2023-01-29T08:31:46.071Z,14.6
2023-01-29T08:33:49.055Z,14.5
2023-01-29T08:35:55.263Z,13.5
2023-01-29T08:42:04.299Z,12.9
2023-01-29T08:44:07.320Z,12.1
2023-01-29T08:48:13.372Z,13
2023-01-29T08:50:19.825Z,12.1
2023-01-29T08:54:25.635Z,12.3
2023-01-29T09:09:53.068Z,6.2
2023-01-29T09:11:56.102Z,13.3
2023-01-29T09:13:59.180Z,12.5
2023-01-29T09:16:02.146Z,12.5
2023-01-29T09:18:08.391Z,10.8
2023-01-29T09:20:11.416Z,12.4
2023-01-29T09:22:14.429Z,11.1
2023-01-29T09:24:17.456Z,11.9
2023-01-29T09:26:20.504Z,10.6
2023-01-29T09:28:23.513Z,11.5
2023-01-29T09:30:26.532Z,11.6
2023-01-29T09:32:53.072Z,11.5
2023-01-29T09:34:35.807Z,13.2
2023-01-29T09:36:38.842Z,9.9
2023-01-29T09:38:41.873Z,12.5
2023-01-29T09:40:44.901Z,12
2023-01-29T09:42:47.944Z,10.9
2023-01-29T09:44:50.971Z,12.7
2023-01-29T09:46:57.383Z,11.6
2023-01-29T09:49:00.246Z,13.2
2023-01-29T09:51:03.259Z,12
2023-01-29T09:53:06.318Z,10.4
2023-01-29T09:55:09.369Z,11.4
2023-01-29T09:57:12.462Z,11
2023-01-29T09:59:15.411Z,9
2023-01-29T10:01:21.826Z,11.5
2023-01-29T10:03:24.701Z,8.1
2023-01-29T10:05:27.761Z,11.4
2023-01-29T10:07:57.620Z,10
2023-01-29T10:10:00.662Z,9.3
2023-01-29T10:12:03.702Z,9.6
2023-01-29T10:14:09.968Z,9.9
2023-01-29T10:16:12.989Z,11.3
2023-01-29T10:18:16.042Z,10.4
2023-01-29T10:20:19.079Z,9.9
2023-01-29T10:22:22.123Z,10.7
2023-01-29T10:24:25.167Z,9.5
2023-01-29T10:26:28.329Z,8.8
2023-01-29T10:28:34.465Z,13.2
2023-01-29T10:30:37.512Z,12.9
2023-01-29T10:34:43.618Z,9.3
2023-01-29T10:40:52.795Z,9.2
2023-01-29T10:42:59.035Z,12.5
2023-01-29T10:45:02.084Z,11.1
2023-01-29T10:47:05.104Z,9.1
2023-01-29T10:49:08.148Z,9.7
2023-01-29T10:51:11.204Z,8.5
2023-01-29T10:53:14.243Z,9.4
2023-01-29T10:55:17.697Z,9.6
2023-01-29T10:57:23.528Z,10.8
2023-01-29T10:59:26.594Z,11.9
2023-01-29T11:01:29.753Z,10.5
2023-01-29T11:02:32.793Z,9.9
2023-01-29T11:04:35.820Z,10.4
2023-01-29T11:06:38.869Z,11.2
2023-01-29T11:10:48.158Z,11.1
2023-01-29T11:14:54.243Z,9.2
2023-01-29T11:16:57.390Z,11.3
2023-01-29T11:21:03.403Z,11.5
2023-01-29T11:23:07.689Z,9.9
2023-01-29T11:25:12.711Z,10.5
2023-01-29T11:29:18.832Z,11.5
2023-01-29T11:33:24.916Z,11.6
2023-01-29T11:35:27.959Z,10.5
2023-01-29T11:37:31.014Z,11.1
2023-01-29T11:39:37.280Z,10.5
2023-01-29T11:41:40.307Z,10.8
2023-01-29T11:43:43.383Z,9.9
2023-01-29T11:45:46.432Z,12.2
2023-01-29T11:47:49.469Z,11.7
2023-01-29T11:49:52.527Z,14.3
2023-01-29T11:51:55.573Z,12.4
2023-01-29T11:56:04.887Z,9.8
2023-01-29T11:58:07.932Z,12.6
2023-01-29T11:59:11.068Z,11.6
2023-01-29T12:01:14.104Z,14.3
2023-01-29T12:03:17.139Z,10.6
2023-01-29T12:05:20.209Z,12.4
2023-01-29T12:07:26.462Z,13.8
2023-01-29T12:09:29.520Z,12.8
2023-01-29T12:11:32.808Z,11.8
2023-01-29T12:13:35.587Z,13
2023-01-29T12:15:38.657Z,11.5
2023-01-29T12:19:44.731Z,12.3
2023-01-29T12:21:50.979Z,13.1
2023-01-29T12:23:54.020Z,15.1
2023-01-29T12:25:57.108Z,11.1
2023-01-29T12:28:00.167Z,14.4
2023-01-29T12:30:03.184Z,16.3
2023-01-29T12:32:06.245Z,15.9
2023-01-29T12:36:15.505Z,15.5
2023-01-29T12:38:18.592Z,16
2023-01-29T12:42:24.673Z,16.1
2023-01-29T12:44:27.687Z,15.6
2023-01-29T12:48:33.792Z,16.2
2023-01-29T12:52:43.082Z,18.3
2023-01-29T12:54:46.130Z,16.5
2023-01-29T12:55:49.256Z,17.9
2023-01-29T12:59:55.354Z,17.5
2023-01-29T13:01:58.372Z,18.4
2023-01-29T13:10:13.754Z,15.6
2023-01-29T13:12:16.799Z,19.3
2023-01-29T13:14:19.800Z,20.4
2023-01-29T13:16:22.895Z,19.6
2023-01-29T13:20:32.140Z,19.3
2023-01-29T13:22:35.207Z,21.2
2023-01-29T13:24:38.233Z,18.8
2023-01-29T13:26:41.319Z,20.6
2023-01-29T13:28:44.312Z,19.9
2023-01-29T13:30:47.367Z,22.4
2023-01-29T13:32:53.599Z,21.6
2023-01-29T13:34:56.622Z,13
2023-01-29T13:36:59.656Z,20.7
2023-01-29T13:39:02.703Z,17.8
2023-01-29T13:41:05.727Z,25.9
2023-01-29T13:43:08.762Z,21.3
2023-01-29T13:45:11.786Z,23.5
2023-01-29T13:47:18.024Z,21.5
2023-01-29T13:49:21.069Z,22.8
2023-01-29T13:51:24.117Z,22.1
2023-01-29T13:53:51.975Z,22.1
2023-01-29T13:55:56.598Z,21.3
2023-01-29T13:57:59.608Z,18.7
2023-01-29T14:00:05.937Z,24.1
2023-01-29T14:02:08.945Z,19.2
2023-01-29T14:06:14.967Z,22.3
2023-01-29T14:08:18.035Z,18.4
2023-01-29T14:10:21.088Z,19.4
2023-01-29T14:12:24.129Z,17.4
2023-01-29T14:14:30.393Z,19.7
2023-01-29T14:16:33.524Z,20.4
2023-01-29T14:20:45.629Z,22.5
2023-01-29T14:22:42.564Z,18.1
2023-01-29T14:24:45.640Z,18.6
2023-01-29T14:26:48.805Z,18
2023-01-29T14:41:13.308Z,18.3
2023-01-29T14:43:19.555Z,19.7
2023-01-29T14:45:22.631Z,18.8
2023-01-29T14:47:25.670Z,19.5
2023-01-29T14:48:28.779Z,19.4
2023-01-29T14:50:31.887Z,18.9
2023-01-29T14:52:34.910Z,18.5
2023-01-29T14:56:44.217Z,18.3
2023-01-29T14:58:47.255Z,17.2
2023-01-29T15:00:50.309Z,14.5
2023-01-29T15:03:01.311Z,15.7
2023-01-29T15:04:56.416Z,17.6
2023-01-29T15:15:15.303Z,18.1
2023-01-29T15:21:24.040Z,17.9
2023-01-29T15:23:27.091Z,17.1
2023-01-29T15:25:33.359Z,17.8
2023-01-29T15:27:36.402Z,15.7
2023-01-29T15:29:39.489Z,16.9
2023-01-29T15:31:42.665Z,17.1
2023-01-29T15:33:45.577Z,17.5
2023-01-29T15:37:51.645Z,19.3
2023-01-29T15:39:57.943Z,19.1
2023-01-29T15:42:00.968Z,15.2
2023-01-29T15:44:04.005Z,17.3
2023-01-29T15:45:07.167Z,17.5
2023-01-29T15:47:10.271Z,17.5
2023-01-29T15:49:13.228Z,21
2023-01-29T15:51:16.297Z,18.5
2023-01-29T15:57:28.642Z,15.1
2023-01-29T15:59:31.675Z,18
2023-01-29T16:07:47.111Z,17.2
2023-01-29T16:09:50.143Z,15.4
2023-01-29T16:11:53.173Z,20.2
2023-01-29T16:15:59.332Z,19
2023-01-29T16:20:05.390Z,19.1
2023-01-29T16:22:11.637Z,20.8
2023-01-29T16:24:14.699Z,20.3
2023-01-29T16:26:17.766Z,16.6
2023-01-29T16:30:23.806Z,18
2023-01-29T16:41:45.362Z,20.9
2023-01-29T16:52:03.791Z,20.3
2023-01-29T16:54:06.795Z,20.8
2023-01-29T16:56:09.863Z,22.8
2023-01-29T16:58:12.904Z,22.9
2023-01-29T17:00:15.938Z,20.4
2023-01-29T17:02:19.004Z,21.5
2023-01-29T17:04:25.245Z,19.5
2023-01-29T17:06:28.277Z,18.7
2023-01-29T17:08:31.350Z,22.9
2023-01-29T17:10:34.357Z,22.6
2023-01-29T17:12:38.885Z,22.6
2023-01-29T17:14:40.447Z,17.5
2023-01-29T17:16:43.482Z,21.6
2023-01-29T17:18:49.766Z,21.7
2023-01-29T17:20:52.801Z,18
2023-01-29T17:22:55.851Z,22.7
2023-01-29T17:29:04.969Z,18.5
2023-01-29T17:31:08.030Z,21.6
2023-01-29T17:33:14.238Z,23.7
2023-01-29T17:35:17.585Z,21.1
2023-01-29T17:37:20.314Z,20.6
2023-01-29T17:39:50.201Z,21
2023-01-29T17:41:53.228Z,21.2
2023-01-29T17:43:56.270Z,24.4
2023-01-29T17:52:11.618Z,22.8
2023-01-29T17:54:14.640Z,22.3
2023-01-29T17:56:17.744Z,20.8
2023-01-29T18:00:26.979Z,23
2023-01-29T18:04:33.046Z,18.6
2023-01-29T18:06:36.069Z,19.4
2023-01-29T18:10:42.109Z,21.1
2023-01-29T18:12:45.180Z,23.2
2023-01-29T18:14:51.406Z,24.3
2023-01-29T18:16:57.150Z,19.3
2023-01-29T18:18:57.491Z,21
2023-01-29T18:21:00.531Z,18.5
2023-01-29T18:23:03.547Z,20
2023-01-29T18:25:06.563Z,18.7
2023-01-29T18:27:09.619Z,20.8
2023-01-29T18:29:15.942Z,21.5
2023-01-29T18:33:21.929Z,19.2
2023-01-29T18:34:25.227Z,13.8
2023-01-29T18:36:28.127Z,20.6
2023-01-29T18:38:31.150Z,21.7
2023-01-29T18:40:34.179Z,19
2023-01-29T18:42:40.524Z,19.4
2023-01-29T18:44:43.460Z,19.5
2023-01-29T18:46:46.516Z,17.8
2023-01-29T18:48:49.587Z,18.4
2023-01-29T18:50:52.629Z,19.1
2023-01-29T18:52:55.695Z,18.5
2023-01-29T18:54:58.675Z,19.3
2023-01-29T18:57:13.325Z,20.6
2023-01-29T19:15:35.502Z,18.9
2023-01-29T19:17:38.534Z,19.6
2023-01-29T19:19:41.599Z,18.4
2023-01-29T19:21:44.630Z,16
2023-01-29T19:23:47.665Z,21.5
2023-01-29T19:25:53.924Z,19.4
2023-01-29T19:27:56.964Z,17.8
2023-01-29T19:30:00.017Z,18.8
2023-01-29T19:31:03.300Z,20.4
2023-01-29T19:33:06.199Z,17.2
2023-01-29T19:35:09.235Z,16.8
2023-01-29T19:39:18.551Z,18
2023-01-29T19:43:24.631Z,19.1
2023-01-29T19:45:48.905Z,18.8
2023-01-29T19:47:30.774Z,18.6
2023-01-29T19:49:33.802Z,16.6
2023-01-29T19:51:38.399Z,17.9
2023-01-29T19:55:47.637Z,18.3
2023-01-29T19:57:50.715Z,14.8
2023-01-29T19:59:53.757Z,17.5
2023-01-29T20:01:56.942Z,17.3
2023-01-29T20:03:59.840Z,18.5
2023-01-29T20:06:02.909Z,18.5
2023-01-29T20:08:09.137Z,19.3
2023-01-29T20:12:15.255Z,20.6
2023-01-29T20:18:24.382Z,16.4
2023-01-29T20:22:33.704Z,20.5
2023-01-29T20:24:36.727Z,19.8
2023-01-29T20:27:42.901Z,19.7
2023-01-29T20:29:45.955Z,18.9
2023-01-29T20:31:49.165Z,20.6
2023-01-29T20:35:58.288Z,17.9
2023-01-29T20:40:04.419Z,23.3
2023-01-29T20:42:07.414Z,17.8
2023-01-29T20:46:13.645Z,19.5
2023-01-29T20:48:16.550Z,20.1
2023-01-29T20:50:22.830Z,17.4
2023-01-29T20:52:25.857Z,18.7
2023-01-29T21:00:38.108Z,19.3
2023-01-29T21:02:41.117Z,21
2023-01-29T21:04:47.373Z,22.4
2023-01-29T21:08:53.486Z,20.6
2023-01-29T21:10:56.527Z,21.4
2023-01-29T21:17:05.690Z,21
2023-01-29T21:21:15.037Z,15.3
2023-01-29T21:23:18.059Z,22.2
2023-01-29T21:25:41.863Z,22.2
2023-01-29T21:27:44.939Z,20.5
2023-01-29T21:29:47.959Z,17.6
2023-01-29T21:31:54.255Z,18.6
2023-01-29T21:33:57.273Z,22.9
2023-01-29T21:36:00.355Z,21.5
2023-01-29T21:38:03.389Z,23.8
2023-01-29T21:40:06.449Z,20.5
2023-01-29T21:42:09.516Z,13.8
2023-01-29T21:44:12.625Z,21
2023-01-29T21:46:18.864Z,23.3
2023-01-29T21:48:21.894Z,24.7
2023-01-29T21:50:24.953Z,20.6
2023-01-29T21:52:28.016Z,23.4
2023-01-29T21:54:31.070Z,26.9
2023-01-29T21:56:34.105Z,23.3
2023-01-29T21:58:37.176Z,20.3
2023-01-29T22:00:43.444Z,23.1
2023-01-29T22:02:46.564Z,23.4
2023-01-29T22:04:49.538Z,18.2
2023-01-29T22:06:52.611Z,25.8
2023-01-29T22:08:55.640Z,22.6
2023-01-29T22:10:58.718Z,25
2023-01-29T22:13:01.784Z,21.8
2023-01-29T22:15:08.038Z,25.2
2023-01-29T22:17:11.167Z,25.1
2023-01-29T22:19:14.159Z,24.1
2023-01-29T22:20:17.551Z,22.4
2023-01-29T22:24:23.401Z,22.5
2023-01-29T22:26:26.479Z,21.9
2023-01-29T22:28:32.728Z,20.2
2023-01-29T22:30:35.830Z,23.4
2023-01-29T22:32:38.947Z,23.4
2023-01-29T22:34:41.935Z,14.7
2023-01-29T22:36:44.978Z,25.5
2023-01-29T22:38:48.049Z,23.9
2023-01-29T22:45:00.461Z,19
2023-01-29T22:47:03.482Z,22.6
2023-01-29T22:49:06.551Z,25.7
2023-01-29T22:53:12.664Z,23.6
2023-01-29T22:55:15.747Z,25.3
2023-01-29T22:59:25.053Z,25.6
2023-01-29T23:01:28.150Z,26
2023-01-29T23:05:34.237Z,25.2
2023-01-29T23:07:37.300Z,25.4
2023-01-29T23:09:40.363Z,25.6
2023-01-29T23:15:52.757Z,25.9
2023-01-29T23:16:55.854Z,26.4
2023-01-29T23:18:58.898Z,27
2023-01-29T23:21:02.010Z,24.3
2023-01-29T23:23:05.041Z,26
2023-01-29T23:25:11.305Z,25.3
2023-01-29T23:27:14.375Z,24.6
2023-01-29T23:29:17.453Z,23.2
2023-01-29T23:31:20.547Z,26.8
2023-01-29T23:33:23.574Z,23.6
2023-01-29T23:35:26.661Z,24.5
2023-01-29T23:37:29.712Z,23.1
2023-01-29T23:39:35.991Z,26.6
2023-01-29T23:41:39.044Z,22.1
2023-01-29T23:45:45.201Z,27.2
2023-01-29T23:47:48.223Z,23.9
